NK25 weather

Cambria Airport
Lockport, New York, United States

Public forecast

Using degrees Fahrenheit for public forecast. Weather courtesy of forecast.io.

METAR (pilot weather report)

Closest report is Niagara Falls International Airport, 8.9 nm (16.5 km) SW. Retrieved 2019/06/19 15:53 UTC (14 minutes ago):

KIAG 191553Z 24004KT 10SM FEW037 24/16 A2979 RMK AO2 SLP084 T02390156

TAF (pilot weather forecast)

Closest forecast is Niagara Falls International Airport, 8.9 nm (16.5 km) SW. Retrieved 2019/06/19 12:22 UTC (4 hours ago):

TAF KIAG 191120Z 1912/2012 VRB04KT P6SM FEW200 FM191500 VRB03KT P6SM FEW035 SCT100 FM191800 01005KT P6SM FEW100 FM192200 03007KT P6SM BKN120 FM200000 VRB03KT P6SM SCT200 FM200500 VRB03KT P6SM BKN100 FM200700 VRB03KT P6SM OVC045